Time;durP1;ratioP1;P1;durP2;ratioP2;P2;SDS_P1;SDS_P2;PMS_P1;PMS_P2;Temp;Humidity;BMP_temperature;BMP_pressure;BME280_temperature;BME280_humidity;BME280_pressure;Samples;Min_cycle;Max_cycle;Signal;HPM_P1;HPM_P2
2021/04/17 00:00:49;;;;;;;11.15;5.53;;;;;;;-1.12;73.23;95958.88;4966455;28;20034;-72
2021/04/17 00:03:14;;;;;;;8.98;5.50;;;;;;;-0.87;72.54;95960.13;4972251;28;20133;-72
2021/04/17 00:05:40;;;;;;;8.43;5.65;;;;;;;-0.89;72.28;95954.34;4971446;28;20054;-71
2021/04/17 00:08:06;;;;;;;8.88;5.32;;;;;;;-0.95;72.30;95962.84;4975262;28;20050;-72
2021/04/17 00:10:31;;;;;;;10.73;5.35;;;;;;;-1.01;72.53;95960.97;4964168;28;20492;-72
2021/04/17 00:12:57;;;;;;;8.65;5.07;;;;;;;-0.92;72.31;95954.72;4968335;28;20071;-71
2021/04/17 00:15:23;;;;;;;8.45;5.35;;;;;;;-0.91;72.09;95951.13;4988729;28;20494;-72
2021/04/17 00:17:48;;;;;;;9.85;5.45;;;;;;;-1.03;72.52;95960.38;4976423;28;20042;-71
2021/04/17 00:20:15;;;;;;;8.30;5.40;;;;;;;-1.02;72.91;95951.66;4982420;28;20043;-71
2021/04/17 00:22:40;;;;;;;9.50;5.13;;;;;;;-0.87;72.32;95952.38;4971306;28;20050;-72
2021/04/17 00:25:06;;;;;;;9.13;5.32;;;;;;;-0.83;72.69;95946.81;4978869;28;20045;-71
2021/04/17 00:27:32;;;;;;;7.93;5.28;;;;;;;-0.82;72.48;95948.44;4978580;28;20494;-73
2021/04/17 00:29:58;;;;;;;13.00;5.55;;;;;;;-0.78;72.46;95944.47;4968761;28;20107;-73
2021/04/17 00:32:23;;;;;;;9.73;5.18;;;;;;;-0.82;72.21;95948.44;4983223;28;20486;-73
2021/04/17 00:34:49;;;;;;;8.05;4.78;;;;;;;-0.88;72.96;95945.63;4969093;28;20043;-71
2021/04/17 00:37:15;;;;;;;7.90;5.18;;;;;;;-0.85;72.71;95944.41;4971373;28;20039;-72
2021/04/17 00:39:40;;;;;;;9.68;5.45;;;;;;;-0.82;72.55;95940.66;4971473;28;20031;-73
2021/04/17 00:42:07;;;;;;;9.27;5.18;;;;;;;-0.86;72.83;95937.69;4972068;28;20043;-71
2021/04/17 00:44:34;;;;;;;8.35;4.97;;;;;;;-0.79;72.82;95940.28;4986574;28;20043;-73
2021/04/17 00:47:01;;;;;;;9.68;5.50;;;;;;;-0.76;72.61;95937.34;4965193;28;20047;-73
2021/04/17 00:49:26;;;;;;;7.88;4.97;;;;;;;-0.95;73.84;95929.25;4971167;28;20042;-70
2021/04/17 00:51:52;;;;;;;9.45;5.15;;;;;;;-0.88;73.75;95930.13;4982421;28;20038;-71
2021/04/17 00:54:17;;;;;;;10.05;5.32;;;;;;;-0.70;72.96;95931.44;4972070;28;20043;-70
2021/04/17 00:56:43;;;;;;;8.75;5.18;;;;;;;-0.63;72.89;95921.13;4971302;28;20101;-72
2021/04/17 00:59:09;;;;;;;9.02;5.25;;;;;;;-0.75;73.35;95918.25;4964598;28;20113;-70
2021/04/17 01:01:34;;;;;;;9.38;5.47;;;;;;;-0.66;73.09;95922.31;4971586;28;20538;-71
2021/04/17 01:04:27;;;;;;;9.05;5.35;;;;;;;-0.72;73.47;95917.88;4965775;28;20040;-71
2021/04/17 01:07:05;;;;;;;9.70;5.10;;;;;;;-0.74;73.90;95912.13;4971007;28;20050;-70
2021/04/17 01:09:43;;;;;;;8.88;5.38;;;;;;;-0.68;73.01;95913.94;4971750;28;20051;-70
2021/04/17 01:12:13;;;;;;;8.13;5.10;;;;;;;-0.55;73.17;95914.06;4971790;28;20039;-71
2021/04/17 01:14:42;;;;;;;9.63;5.57;;;;;;;-0.60;73.28;95913.81;4970034;28;20113;-70
2021/04/17 01:17:11;;;;;;;8.88;5.10;;;;;;;-0.54;72.95;95910.44;4971755;28;20039;-72
2021/04/17 01:19:39;;;;;;;8.48;5.13;;;;;;;-0.49;73.38;95912.47;4970914;28;20530;-74
2021/04/17 01:22:14;;;;;;;8.80;5.22;;;;;;;-0.67;73.31;95912.97;4967166;28;20051;-73
2021/04/17 01:24:44;;;;;;;8.63;5.25;;;;;;;-0.65;73.66;95903.22;4963951;28;20047;-73
2021/04/17 01:27:10;;;;;;;8.68;5.60;;;;;;;-0.51;72.67;95903.31;4977285;28;20038;-72
2021/04/17 01:29:37;;;;;;;8.50;5.32;;;;;;;-0.45;72.54;95908.53;4971519;28;20038;-72
2021/04/17 01:32:05;;;;;;;9.40;5.75;;;;;;;-0.72;73.88;95902.38;4971000;28;20047;-73
2021/04/17 01:34:31;;;;;;;9.90;5.63;;;;;;;-0.77;74.05;95899.56;4971502;28;20046;-72
2021/04/17 01:36:58;;;;;;;10.32;5.75;;;;;;;-0.74;74.08;95899.19;4956501;28;20043;-73
2021/04/17 01:39:26;;;;;;;8.55;5.53;;;;;;;-0.70;73.64;95903.00;4971509;28;20115;-72
2021/04/17 01:41:55;;;;;;;12.20;5.97;;;;;;;-0.78;74.64;95903.13;4969953;28;20089;-73
2021/04/17 01:44:22;;;;;;;8.73;5.80;;;;;;;-0.81;74.40;95900.94;4957558;28;20069;-72
2021/04/17 01:46:52;;;;;;;7.88;5.25;;;;;;;-0.76;74.50;95898.56;4962260;28;20049;-73
2021/04/17 01:49:19;;;;;;;8.65;5.35;;;;;;;-0.74;74.18;95894.03;4971660;28;20050;-72
2021/04/17 01:51:46;;;;;;;9.82;5.45;;;;;;;-0.68;74.12;95893.25;4970007;28;20440;-73
2021/04/17 01:54:18;;;;;;;10.30;5.65;;;;;;;-0.62;73.69;95900.25;4971114;28;20504;-72
2021/04/17 01:56:47;;;;;;;9.20;5.25;;;;;;;-0.64;73.71;95894.47;4971009;28;20054;-72
2021/04/17 01:59:16;;;;;;;10.45;5.97;;;;;;;-0.82;74.66;95901.91;4971787;28;20039;-73
2021/04/17 02:01:42;;;;;;;9.85;5.70;;;;;;;-0.81;74.75;95893.97;4971021;28;20043;-72
2021/04/17 02:04:08;;;;;;;9.05;5.55;;;;;;;-0.85;75.04;95897.13;4967824;28;20055;-72
2021/04/17 02:06:34;;;;;;;9.18;5.70;;;;;;;-0.90;74.87;95895.91;4967535;28;20136;-72
2021/04/17 02:09:00;;;;;;;8.23;5.28;;;;;;;-0.90;74.95;95890.72;4969763;28;20044;-73
2021/04/17 02:11:26;;;;;;;9.55;5.78;;;;;;;-1.05;75.41;95892.59;4971773;28;20066;-71
2021/04/17 02:13:51;;;;;;;8.40;5.53;;;;;;;-0.99;75.08;95891.88;4971087;28;20054;-72
2021/04/17 02:16:25;;;;;;;9.27;6.25;;;;;;;-0.90;74.61;95895.91;4970289;28;20043;-72
2021/04/17 02:19:02;;;;;;;9.60;5.60;;;;;;;-0.75;74.41;95887.25;4969778;28;20515;-72
2021/04/17 02:21:48;;;;;;;10.05;6.03;;;;;;;-0.94;74.73;95892.09;4971245;28;20085;-72
2021/04/17 02:24:14;;;;;;;9.88;6.10;;;;;;;-0.90;74.65;95895.91;4970414;28;20105;-71
2021/04/17 02:26:40;;;;;;;10.13;5.95;;;;;;;-0.90;74.57;95880.38;4970499;28;20066;-72
2021/04/17 02:29:07;;;;;;;9.45;5.60;;;;;;;-0.89;74.32;95882.00;4971180;28;20051;-72
2021/04/17 02:31:34;;;;;;;11.38;6.43;;;;;;;-0.83;74.33;95880.44;4969772;28;20493;-72
2021/04/17 02:34:01;;;;;;;11.07;6.13;;;;;;;-1.12;75.28;95884.00;4969499;28;20043;-72
2021/04/17 02:36:26;;;;;;;12.45;6.13;;;;;;;-1.02;74.99;95881.91;4971544;28;20492;-72
2021/04/17 02:38:52;;;;;;;10.65;5.78;;;;;;;-1.14;75.36;95878.22;4967918;28;20046;-71
2021/04/17 02:41:19;;;;;;;11.40;6.85;;;;;;;-0.98;74.97;95872.78;4974752;28;20120;-72
2021/04/17 02:43:46;;;;;;;12.25;6.03;;;;;;;-1.03;75.32;95882.88;4973176;28;20102;-73
2021/04/17 02:46:13;;;;;;;9.70;5.93;;;;;;;-0.99;74.98;95876.38;4973634;28;20039;-72
2021/04/17 02:48:39;;;;;;;11.23;6.20;;;;;;;-0.96;74.78;95886.31;4974446;28;20065;-72
2021/04/17 02:51:06;;;;;;;10.77;6.00;;;;;;;-1.17;75.32;95879.38;4974221;28;20511;-73
2021/04/17 02:53:32;;;;;;;11.05;6.38;;;;;;;-1.24;75.99;95879.31;4971317;28;20102;-71
2021/04/17 02:55:58;;;;;;;11.60;6.35;;;;;;;-1.12;75.54;95877.06;4973646;28;20047;-71
2021/04/17 02:58:24;;;;;;;11.25;6.32;;;;;;;-0.88;75.02;95873.25;4968277;28;20050;-71
2021/04/17 03:00:50;;;;;;;8.95;5.40;;;;;;;-0.92;74.70;95866.88;4972631;28;20043;-72
2021/04/17 03:03:16;;;;;;;11.00;6.05;;;;;;;-0.98;75.21;95867.59;4969140;28;20093;-72
2021/04/17 03:05:42;;;;;;;10.30;6.55;;;;;;;-0.85;74.96;95866.13;4987679;28;20043;-72
2021/04/17 03:08:08;;;;;;;9.25;6.00;;;;;;;-0.94;75.09;95861.06;4962304;28;20047;-72
2021/04/17 03:10:35;;;;;;;10.90;6.10;;;;;;;-1.02;76.04;95861.25;4974078;28;20042;-72
2021/04/17 03:13:01;;;;;;;9.23;6.03;;;;;;;-0.87;75.03;95864.50;4973315;28;20456;-71
2021/04/17 03:15:27;;;;;;;10.18;5.63;;;;;;;-0.92;75.08;95866.88;4972619;28;20054;-74
2021/04/17 03:17:52;;;;;;;9.75;5.90;;;;;;;-0.77;74.81;95858.22;4958183;28;20046;-71
2021/04/17 03:20:18;;;;;;;12.93;6.47;;;;;;;-0.78;74.90;95856.63;4971439;28;20141;-72
2021/04/17 03:22:44;;;;;;;9.68;6.07;;;;;;;-0.72;74.45;95861.03;4972079;28;20038;-72
2021/04/17 03:25:11;;;;;;;10.60;6.28;;;;;;;-0.81;74.89;95857.00;4972479;28;20042;-72
2021/04/17 03:27:37;;;;;;;9.73;6.03;;;;;;;-0.88;75.79;95862.94;4973406;28;20539;-72
2021/04/17 03:30:07;;;;;;;10.35;6.25;;;;;;;-0.66;74.33;95860.28;4973290;28;20047;-72
2021/04/17 03:32:33;;;;;;;10.43;6.38;;;;;;;-0.63;74.68;95853.91;4973402;28;20093;-72
2021/04/17 03:34:59;;;;;;;11.95;5.78;;;;;;;-0.70;74.79;95851.31;4966247;28;20050;-71
2021/04/17 03:37:25;;;;;;;11.30;6.88;;;;;;;-0.75;75.04;95856.25;4966813;28;20048;-72
2021/04/17 03:39:51;;;;;;;10.55;6.30;;;;;;;-0.84;75.71;95847.03;4968607;28;20050;-72
2021/04/17 03:42:16;;;;;;;10.07;6.40;;;;;;;-0.76;75.54;95845.13;4973019;28;20496;-71
2021/04/17 03:44:42;;;;;;;10.10;6.72;;;;;;;-0.65;75.16;95846.34;4973692;28;20054;-73
2021/04/17 03:47:08;;;;;;;10.88;6.32;;;;;;;-0.64;75.29;95852.34;4972705;28;20035;-72
2021/04/17 03:49:33;;;;;;;11.85;7.20;;;;;;;-0.78;75.31;95847.06;4973089;28;20069;-72
2021/04/17 03:51:59;;;;;;;12.38;6.40;;;;;;;-0.90;75.62;95844.22;4972795;28;20061;-72
2021/04/17 03:54:25;;;;;;;11.63;6.95;;;;;;;-0.83;76.27;95848.63;4973587;28;20543;-71
2021/04/17 03:56:50;;;;;;;11.00;6.70;;;;;;;-0.91;76.77;95847.78;4970905;28;20042;-72
2021/04/17 03:59:16;;;;;;;9.57;6.40;;;;;;;-0.96;76.49;95857.06;4968990;28;20050;-73
2021/04/17 04:01:42;;;;;;;11.23;6.80;;;;;;;-0.96;76.95;95855.31;4972948;28;20035;-72
2021/04/17 04:04:08;;;;;;;13.52;7.45;;;;;;;-0.93;76.97;95864.47;4960044;28;20039;-72
2021/04/17 04:06:33;;;;;;;12.50;7.80;;;;;;;-0.98;77.45;95859.84;4966973;28;20338;-72
2021/04/17 04:08:59;;;;;;;13.00;7.70;;;;;;;-0.71;75.78;95865.22;4987716;28;20665;-72
2021/04/17 04:11:25;;;;;;;13.82;7.25;;;;;;;-0.72;76.06;95861.84;4972588;28;20035;-72
2021/04/17 04:13:50;;;;;;;12.05;7.00;;;;;;;-0.61;75.44;95868.25;4971516;28;20039;-72
2021/04/17 04:16:16;;;;;;;12.30;7.35;;;;;;;-0.74;76.03;95878.53;4971284;28;20049;-72
2021/04/17 04:18:42;;;;;;;11.07;7.05;;;;;;;-0.69;75.92;95876.16;4955997;28;20449;-71
2021/04/17 04:21:07;;;;;;;11.07;7.43;;;;;;;-0.90;76.96;95867.47;4962879;28;20492;-72
2021/04/17 04:23:33;;;;;;;13.55;6.93;;;;;;;-0.80;76.34;95868.94;4972073;28;20047;-72
2021/04/17 04:25:58;;;;;;;14.35;7.60;;;;;;;-0.73;75.93;95875.75;4971797;28;20043;-72
2021/04/17 04:28:24;;;;;;;12.45;6.93;;;;;;;-0.66;76.05;95875.78;4986440;28;20049;-71
2021/04/17 04:30:50;;;;;;;11.25;6.75;;;;;;;-0.66;75.92;95870.63;4972882;28;20522;-72
2021/04/17 04:33:16;;;;;;;12.80;7.53;;;;;;;-0.53;75.27;95881.03;4972408;28;20039;-72
2021/04/17 04:35:41;;;;;;;10.23;7.05;;;;;;;-0.42;74.91;95881.50;4956900;28;20046;-72
2021/04/17 04:38:07;;;;;;;12.25;7.45;;;;;;;-0.47;75.12;95883.88;4967728;28;20047;-72
2021/04/17 04:40:32;;;;;;;12.50;7.40;;;;;;;-0.66;75.64;95886.13;4972236;28;20416;-72
2021/04/17 04:42:58;;;;;;;13.07;7.20;;;;;;;-0.46;75.08;95885.44;4965420;28;20046;-71
2021/04/17 04:45:23;;;;;;;10.77;6.97;;;;;;;-0.48;75.68;95882.25;4985934;28;20031;-72
2021/04/17 04:47:49;;;;;;;13.88;7.18;;;;;;;-0.53;75.27;95886.22;4971803;28;20039;-72
2021/04/17 04:50:14;;;;;;;12.27;7.05;;;;;;;-0.54;75.70;95879.44;4972610;28;20051;-72
2021/04/17 04:52:40;;;;;;;11.07;6.93;;;;;;;-0.48;75.33;95877.09;4971723;28;20463;-72
2021/04/17 04:55:07;;;;;;;14.25;7.00;;;;;;;-0.40;75.64;95884.69;4971308;28;20492;-72
2021/04/17 04:57:33;;;;;;;11.77;7.32;;;;;;;-0.31;75.35;95883.53;4971604;28;20511;-72
2021/04/17 04:59:58;;;;;;;15.25;7.88;;;;;;;-0.37;75.75;95889.47;4963463;28;20062;-72
2021/04/17 05:02:24;;;;;;;12.23;7.95;;;;;;;-0.28;75.29;95888.31;4986663;28;20492;-71
2021/04/17 05:04:49;;;;;;;16.48;8.27;;;;;;;-0.22;75.17;95887.56;4971890;28;20500;-72
2021/04/17 05:07:15;;;;;;;14.35;7.85;;;;;;;-0.41;75.78;95888.25;4965242;28;20043;-72
2021/04/17 05:09:41;;;;;;;12.15;7.47;;;;;;;-0.19;75.63;95881.19;4971629;28;20058;-72
2021/04/17 05:12:07;;;;;;;15.63;8.50;;;;;;;-0.10;75.56;95889.59;4971757;28;20047;-72
2021/04/17 05:14:32;;;;;;;12.70;8.23;;;;;;;0.01;74.97;95891.63;4971869;28;20046;-72
2021/04/17 05:16:58;;;;;;;15.30;8.27;;;;;;;0.12;74.62;95878.16;4967980;28;20038;-72
2021/04/17 05:19:25;;;;;;;13.60;7.97;;;;;;;0.12;74.67;95877.34;4954011;28;20039;-72
2021/04/17 05:21:51;;;;;;;12.38;8.13;;;;;;;0.12;74.68;95883.31;4969119;28;20398;-72
2021/04/17 05:24:16;;;;;;;13.63;8.15;;;;;;;0.10;74.96;95884.50;4971844;28;20054;-72
2021/04/17 05:26:42;;;;;;;12.65;8.43;;;;;;;0.17;74.75;95886.13;4966077;28;20489;-72
2021/04/17 05:29:07;;;;;;;14.65;8.27;;;;;;;0.20;74.91;95879.75;4971424;28;20042;-72
2021/04/17 05:31:35;;;;;;;15.13;8.23;;;;;;;0.30;74.62;95890.56;4971749;28;20042;-72
2021/04/17 05:34:01;;;;;;;16.35;8.60;;;;;;;0.34;74.77;95885.78;4969953;28;20043;-72
2021/04/17 05:36:26;;;;;;;13.18;8.27;;;;;;;0.42;74.40;95883.03;4970938;28;20061;-72
2021/04/17 05:38:53;;;;;;;13.27;8.13;;;;;;;0.47;74.58;95885.81;4969186;28;20508;-71
2021/04/17 05:41:20;;;;;;;14.25;8.82;;;;;;;0.53;74.22;95889.41;4952831;28;20043;-72
2021/04/17 05:43:46;;;;;;;12.70;8.18;;;;;;;0.53;73.72;95889.41;4952456;28;20055;-72
2021/04/17 05:46:12;;;;;;;14.48;8.85;;;;;;;0.55;73.91;95886.63;4970939;28;20050;-72
2021/04/17 05:48:38;;;;;;;15.60;8.70;;;;;;;0.56;73.98;95894.22;4970699;28;20039;-72
2021/04/17 05:51:04;;;;;;;15.45;8.35;;;;;;;0.54;74.02;95885.03;4971029;28;20098;-71
2021/04/17 05:53:30;;;;;;;17.33;9.00;;;;;;;0.65;74.42;95885.25;4970607;28;20507;-72
2021/04/17 05:55:55;;;;;;;13.82;8.60;;;;;;;0.73;74.08;95894.63;4969582;28;20047;-72
2021/04/17 05:58:21;;;;;;;14.13;8.07;;;;;;;0.77;74.01;95895.03;4971623;28;20050;-72
2021/04/17 06:00:46;;;;;;;13.98;8.38;;;;;;;0.84;73.84;95896.63;4968490;28;20492;-72
2021/04/17 06:03:12;;;;;;;15.70;9.15;;;;;;;0.84;73.71;95886.25;4959900;28;20574;-71
2021/04/17 06:05:38;;;;;;;13.98;9.15;;;;;;;0.82;73.89;95898.63;4971069;28;20050;-72
2021/04/17 06:08:04;;;;;;;17.25;9.40;;;;;;;0.84;73.72;95894.03;4958930;28;20043;-72
2021/04/17 06:10:30;;;;;;;13.40;7.85;;;;;;;0.81;74.18;95902.19;4970449;28;20038;-72
2021/04/17 06:12:55;;;;;;;15.43;9.15;;;;;;;0.85;73.90;95898.22;4975085;28;20039;-72
2021/04/17 06:15:21;;;;;;;15.88;10.13;;;;;;;0.72;75.48;95908.59;4974853;28;20101;-72
2021/04/17 06:17:46;;;;;;;16.92;9.45;;;;;;;0.76;74.85;95899.44;4974683;28;20049;-72
2021/04/17 06:20:12;;;;;;;16.63;9.57;;;;;;;0.88;74.56;95896.22;4967435;28;20054;-73
2021/04/17 06:22:38;;;;;;;17.52;9.43;;;;;;;1.14;73.83;95900.63;4975020;28;20047;-72
2021/04/17 06:25:08;;;;;;;15.40;9.75;;;;;;;1.16;73.80;95894.22;4964697;28;20070;-73
2021/04/17 06:27:33;;;;;;;16.70;10.18;;;;;;;1.19;74.12;95899.03;4974981;28;20039;-72
2021/04/17 06:30:00;;;;;;;19.05;10.07;;;;;;;0.90;75.28;95899.44;4974705;28;20522;-72
2021/04/17 06:32:25;;;;;;;16.00;10.10;;;;;;;0.94;75.67;95890.25;4962063;28;20062;-72
2021/04/17 06:34:51;;;;;;;16.40;9.88;;;;;;;1.15;75.24;95892.66;4968806;28;20485;-72
2021/04/17 06:37:17;;;;;;;15.25;9.50;;;;;;;1.20;75.41;95895.44;4973760;28;20496;-72
2021/04/17 06:39:42;;;;;;;17.25;9.85;;;;;;;1.27;75.27;95897.25;4974255;28;20129;-72
2021/04/17 06:42:13;;;;;;;16.20;9.98;;;;;;;1.58;74.01;95895.78;4974718;28;20043;-72
2021/04/17 06:44:43;;;;;;;18.70;10.82;;;;;;;1.58;74.42;95890.59;4973977;28;20496;-72
2021/04/17 06:47:18;;;;;;;17.02;10.35;;;;;;;1.60;74.50;95888.63;4974062;28;20042;-72
2021/04/17 06:49:43;;;;;;;17.35;10.45;;;;;;;1.92;72.92;95892.09;4974613;28;20062;-72
2021/04/17 06:52:11;;;;;;;17.45;10.65;;;;;;;1.85;73.18;95892.16;4974528;28;20047;-72
2021/04/17 06:54:37;;;;;;;18.42;10.95;;;;;;;2.06;72.99;95890.28;4968222;28;20055;-72
2021/04/17 06:57:03;;;;;;;19.48;10.80;;;;;;;2.18;72.22;95891.19;4988897;28;20408;-72
2021/04/17 06:59:32;;;;;;;19.02;10.70;;;;;;;2.17;71.62;95894.00;4974511;28;20043;-72
2021/04/17 07:01:58;;;;;;;22.33;10.98;;;;;;;1.99;73.14;95887.69;4973463;28;20259;-72
2021/04/17 07:04:25;;;;;;;19.23;11.35;;;;;;;2.25;72.71;95880.78;4973375;28;20452;-72
2021/04/17 07:06:52;;;;;;;19.88;10.90;;;;;;;2.21;73.65;95880.44;4957682;28;20045;-72
2021/04/17 07:09:20;;;;;;;20.65;12.50;;;;;;;1.98;74.83;95878.31;4964752;28;20051;-72
2021/04/17 07:11:46;;;;;;;22.92;12.18;;;;;;;2.01;74.80;95884.88;4972542;28;20035;-72
2021/04/17 07:14:15;;;;;;;19.60;11.25;;;;;;;2.28;73.49;95874.41;4969477;28;20043;-72
2021/04/17 07:16:54;;;;;;;21.88;12.52;;;;;;;2.33;73.53;95877.16;4966382;28;20110;-72
2021/04/17 07:19:22;;;;;;;23.42;13.05;;;;;;;2.37;73.72;95884.34;4971695;28;20053;-72
2021/04/17 07:21:47;;;;;;;21.27;12.88;;;;;;;2.30;74.84;95873.19;4973123;28;20039;-72
2021/04/17 07:24:26;;;;;;;21.98;12.68;;;;;;;2.25;75.01;95881.56;4973342;28;20078;-72
2021/04/17 07:26:52;;;;;;;24.13;12.45;;;;;;;2.11;74.40;95880.03;4969969;28;20082;-72
2021/04/17 07:29:18;;;;;;;24.60;13.57;;;;;;;2.25;75.05;95884.19;4965356;28;20050;-73
2021/04/17 07:31:55;;;;;;;21.38;12.57;;;;;;;2.07;74.73;95886.69;4972928;28;20106;-73
2021/04/17 07:34:23;;;;;;;22.88;13.00;;;;;;;1.81;76.38;95880.59;4970847;28;20042;-73
2021/04/17 07:36:54;;;;;;;25.33;14.20;;;;;;;1.79;77.32;95887.75;4971999;28;20492;-72
2021/04/17 07:39:39;;;;;;;23.02;13.50;;;;;;;1.89;77.18;95882.94;4960388;28;20051;-72
2021/04/17 07:42:13;;;;;;;26.65;15.20;;;;;;;1.81;77.24;95896.16;4972352;28;20102;-72
2021/04/17 07:44:48;;;;;;;24.25;14.05;;;;;;;1.80;78.34;95894.53;4987063;28;20042;-72
2021/04/17 07:47:32;;;;;;;29.63;14.10;;;;;;;1.92;79.33;95891.31;4971239;28;20043;-72
2021/04/17 07:50:08;;;;;;;27.75;14.20;;;;;;;1.85;81.11;95892.16;4968316;28;20050;-72
2021/04/17 07:52:35;;;;;;;27.70;14.50;;;;;;;1.93;81.36;95887.72;4964671;28;20051;-72
2021/04/17 07:55:00;;;;;;;26.40;13.60;;;;;;;1.89;81.59;95890.72;4962193;28;20492;-73
2021/04/17 07:57:38;;;;;;;27.23;14.52;;;;;;;2.00;83.00;95893.69;4966125;28;20043;-72
2021/04/17 08:00:06;;;;;;;31.25;15.25;;;;;;;2.02;81.74;95891.69;4972948;28;20050;-71
2021/04/17 08:02:33;;;;;;;30.42;15.80;;;;;;;1.99;82.34;95897.28;4972192;28;20069;-68
2021/04/17 08:05:00;;;;;;;28.02;15.93;;;;;;;1.86;80.78;95891.13;4980961;28;20046;-70
2021/04/17 08:07:27;;;;;;;31.67;16.42;;;;;;;1.82;82.81;95892.53;4970923;28;20412;-70
2021/04/17 08:09:56;;;;;;;33.67;16.65;;;;;;;2.11;83.33;95895.63;4972693;28;20427;-70
2021/04/17 08:12:24;;;;;;;31.20;16.23;;;;;;;2.08;82.40;95893.44;4972067;28;20081;-70
2021/04/17 08:14:50;;;;;;;26.65;14.50;;;;;;;2.08;80.67;95890.84;4971320;28;20051;-71
2021/04/17 08:17:16;;;;;;;27.95;16.05;;;;;;;1.85;81.60;95886.97;4964885;28;20131;-70
2021/04/17 08:19:42;;;;;;;33.97;17.20;;;;;;;2.06;83.49;95882.47;4963616;28;20046;-70
2021/04/17 08:22:08;;;;;;;29.67;16.58;;;;;;;2.23;83.10;95894.00;4967215;28;20492;-71
2021/04/17 08:24:34;;;;;;;27.48;14.90;;;;;;;2.06;80.81;95892.88;4963388;28;20106;-73
2021/04/17 08:27:01;;;;;;;30.33;16.58;;;;;;;2.32;82.38;95880.78;4986744;28;20039;-72
2021/04/17 08:29:49;;;;;;;27.35;15.20;;;;;;;2.51;81.62;95889.47;4971578;28;20129;-73
2021/04/17 08:32:29;;;;;;;26.13;15.73;;;;;;;2.32;78.55;95891.16;4972326;28;20051;-73
2021/04/17 08:35:13;;;;;;;29.77;15.45;;;;;;;2.55;82.82;95885.44;4983249;28;20394;-78
2021/04/17 08:37:51;;;;;;;31.92;15.30;;;;;;;2.49;80.40;95881.09;4961295;28;20058;-75
2021/04/17 08:40:32;;;;;;;24.45;14.73;;;;;;;2.60;79.59;95873.41;4972037;28;20079;-73
2021/04/17 08:42:59;;;;;;;23.60;13.95;;;;;;;2.60;79.72;95878.63;4972301;28;20352;-74
2021/04/17 08:45:25;;;;;;;23.50;14.23;;;;;;;2.64;81.54;95867.78;4971969;28;20455;-79
2021/04/17 08:47:53;;;;;;;24.15;13.70;;;;;;;2.58;79.02;95874.63;4971282;28;20043;-76
2021/04/17 08:50:28;;;;;;;24.63;14.32;;;;;;;2.65;79.14;95866.81;4972210;28;20095;-75
2021/04/17 08:52:59;;;;;;;23.20;14.38;;;;;;;2.55;77.39;95875.84;4986555;28;20051;-75
2021/04/17 08:55:27;;;;;;;22.38;12.82;;;;;;;2.57;78.92;95873.84;4971432;28;20046;-77
2021/04/17 08:58:11;;;;;;;22.30;12.52;;;;;;;2.51;77.20;95874.66;4959008;28;20163;-73
2021/04/17 09:00:39;;;;;;;21.38;13.00;;;;;;;2.62;75.55;95869.81;4953384;28;20047;-72
2021/04/17 09:03:05;;;;;;;21.35;12.40;;;;;;;2.59;77.81;95869.22;4969333;28;20169;-73
2021/04/17 09:05:45;;;;;;;19.20;12.05;;;;;;;2.87;77.79;95872.44;4967411;28;20343;-72
2021/04/17 09:08:13;;;;;;;19.20;11.60;;;;;;;2.86;76.46;95876.84;4970827;28;20121;-72
2021/04/17 09:10:40;;;;;;;18.38;11.00;;;;;;;2.69;74.65;95875.78;4972293;28;20073;-73
2021/04/17 09:13:14;;;;;;;17.17;10.52;;;;;;;2.64;76.31;95870.41;4971547;28;20416;-73
2021/04/17 09:16:07;;;;;;;17.27;11.10;;;;;;;2.80;75.64;95871.69;4970971;28;20034;-75
2021/04/17 09:18:36;;;;;;;19.63;10.68;;;;;;;3.03;76.36;95871.94;4983512;28;20034;-74
2021/04/17 09:21:08;;;;;;;14.68;9.38;;;;;;;3.02;73.23;95869.53;4976794;28;20137;-73
2021/04/17 09:23:42;;;;;;;13.80;8.88;;;;;;;3.21;73.10;95867.78;4970703;28;20114;-73
2021/04/17 09:26:08;;;;;;;14.70;8.68;;;;;;;3.39;71.68;95860.00;4964395;28;20050;-71
2021/04/17 09:28:38;;;;;;;12.82;9.07;;;;;;;3.20;71.72;95856.56;4971813;28;20039;-72
2021/04/17 09:31:05;;;;;;;14.30;9.48;;;;;;;3.45;69.88;95858.34;4971187;28;20556;-70
2021/04/17 09:33:31;;;;;;;12.25;8.15;;;;;;;3.21;70.76;95858.16;4966622;28;20500;-72
2021/04/17 09:35:57;;;;;;;14.23;7.82;;;;;;;3.55;69.78;95863.84;4968944;28;20050;-73
2021/04/17 09:38:29;;;;;;;7.55;4.70;;;;;;;3.38;63.93;95855.03;4970057;28;20047;-74
2021/04/17 09:40:55;;;;;;;7.30;4.38;;;;;;;3.37;65.40;95850.81;4961832;28;20039;-74
2021/04/17 09:43:33;;;;;;;9.73;5.07;;;;;;;3.58;67.63;95858.22;4961504;28;20073;-73
2021/04/17 09:46:01;;;;;;;10.18;4.68;;;;;;;3.44;63.93;95856.75;4961908;28;20074;-73
2021/04/17 09:48:38;;;;;;;10.57;5.55;;;;;;;3.56;64.51;95844.63;4971612;28;20566;-74
2021/04/17 09:51:03;;;;;;;9.35;5.22;;;;;;;3.79;67.23;95850.97;4975465;28;20504;-70
2021/04/17 09:53:30;;;;;;;9.48;5.20;;;;;;;3.98;65.75;95847.34;4974754;28;20039;-76
2021/04/17 09:56:12;;;;;;;10.55;5.93;;;;;;;3.91;66.56;95845.84;4970626;28;20532;-72
2021/04/17 09:58:41;;;;;;;9.43;5.53;;;;;;;3.76;65.50;95843.59;4973743;28;20488;-73
2021/04/17 10:01:07;;;;;;;13.02;6.43;;;;;;;3.80;66.30;95844.75;4970454;28;20042;-70
2021/04/17 10:03:36;;;;;;;10.95;5.88;;;;;;;3.49;65.92;95836.06;4969223;28;20411;-71
2021/04/17 10:06:02;;;;;;;10.07;6.13;;;;;;;3.55;66.07;95832.63;4972942;28;20038;-73
2021/04/17 10:08:30;;;;;;;10.23;6.15;;;;;;;3.97;66.53;95835.34;4969021;28;20139;-73
2021/04/17 10:10:56;;;;;;;10.55;6.43;;;;;;;3.97;65.35;95835.34;4973558;28;20051;-71
2021/04/17 10:13:36;;;;;;;13.45;6.70;;;;;;;4.02;66.04;95820.88;4974909;28;20043;-71
2021/04/17 10:16:02;;;;;;;10.07;6.47;;;;;;;3.77;65.71;95819.16;4965789;28;20062;-73
2021/04/17 10:18:28;;;;;;;9.95;6.25;;;;;;;4.17;66.33;95818.69;4973781;28;20043;-72
2021/04/17 10:20:54;;;;;;;10.88;6.93;;;;;;;4.42;63.20;95812.53;4975578;28;20050;-72
2021/04/17 10:23:19;;;;;;;12.77;7.75;;;;;;;4.74;63.38;95813.06;4966458;28;20485;-72
2021/04/17 10:25:46;;;;;;;15.38;8.95;;;;;;;4.33;64.63;95807.63;4958739;28;20500;-73
2021/04/17 10:28:21;;;;;;;14.13;7.88;;;;;;;4.47;63.96;95815.28;4975186;28;20110;-71
2021/04/17 10:31:00;;;;;;;12.75;7.22;;;;;;;4.32;64.17;95811.25;4973986;28;20101;-72
2021/04/17 10:33:28;;;;;;;12.98;7.75;;;;;;;4.48;64.85;95803.81;4974569;28;20113;-72
2021/04/17 10:35:57;;;;;;;15.32;7.57;;;;;;;4.28;65.18;95804.09;4963757;28;20511;-71
2021/04/17 10:38:26;;;;;;;11.98;7.13;;;;;;;4.34;64.94;95804.00;4972659;28;20039;-71
2021/04/17 10:40:53;;;;;;;11.95;6.72;;;;;;;4.19;65.23;95795.78;4975071;28;20042;-72
2021/04/17 10:43:18;;;;;;;13.18;7.68;;;;;;;4.04;64.42;95798.00;4975217;28;20058;-71
2021/04/17 10:45:46;;;;;;;13.30;7.20;;;;;;;4.15;64.34;95794.66;4974373;28;20459;-71
2021/04/17 10:48:23;;;;;;;12.38;7.70;;;;;;;4.36;64.04;95792.56;4973593;28;20050;-73
2021/04/17 10:51:03;;;;;;;14.00;7.70;;;;;;;4.25;63.97;95802.75;4973920;28;20051;-71
2021/04/17 10:53:32;;;;;;;14.63;8.02;;;;;;;4.54;63.52;95786.47;4974853;28;20046;-71
2021/04/17 10:56:34;;;;;;;12.50;7.00;;;;;;;4.42;63.84;95783.84;4970734;28;20050;-71
2021/04/17 10:59:05;;;;;;;14.32;7.38;;;;;;;4.66;62.16;95790.69;4949344;28;20059;-72
2021/04/17 11:01:36;;;;;;;9.48;7.03;;;;;;;4.94;62.03;95784.06;4974665;28;20050;-71
2021/04/17 11:04:04;;;;;;;11.52;7.55;;;;;;;4.79;61.44;95784.47;4974123;28;20051;-71
2021/04/17 11:06:32;;;;;;;13.30;7.28;;;;;;;4.59;62.79;95779.59;4988642;28;20058;-71
2021/04/17 11:09:11;;;;;;;10.70;6.53;;;;;;;5.10;61.24;95776.56;4970987;28;20061;-72
2021/04/17 11:11:50;;;;;;;8.70;5.43;;;;;;;4.96;59.42;95773.41;4974627;28;20450;-71
2021/04/17 11:14:20;;;;;;;11.05;6.57;;;;;;;4.86;60.87;95773.94;4972546;28;20042;-73
2021/04/17 11:16:47;;;;;;;13.23;6.88;;;;;;;4.65;60.46;95778.69;4964262;28;20078;-72
2021/04/17 11:19:37;;;;;;;11.25;6.85;;;;;;;4.95;62.65;95767.38;4969102;28;20117;-72
2021/04/17 11:22:14;;;;;;;13.23;7.78;;;;;;;4.87;60.50;95770.34;4972819;28;20055;-71
2021/04/17 11:24:42;;;;;;;12.48;7.20;;;;;;;4.76;61.71;95763.28;4973621;28;20043;-72
2021/04/17 11:27:08;;;;;;;11.20;7.05;;;;;;;4.95;61.35;95756.94;4973452;28;20035;-71
2021/04/17 11:29:34;;;;;;;11.07;6.60;;;;;;;4.69;60.60;95769.38;4973783;28;20050;-71
2021/04/17 11:32:00;;;;;;;11.82;7.07;;;;;;;4.59;61.79;95763.94;4974026;28;20492;-71
2021/04/17 11:34:26;;;;;;;10.07;6.38;;;;;;;4.76;61.96;95768.50;4957056;28;20066;-71